createdAt,value
2024-01-17T00:06:16.581Z,-2.35
2024-01-17T00:16:37.626Z,-2.55
2024-01-17T00:26:58.687Z,-2.63
2024-01-17T00:37:20.001Z,-2.77
2024-01-17T00:47:41.018Z,-2.64
2024-01-17T00:58:01.702Z,-2.64
2024-01-17T01:08:22.603Z,-2.50
2024-01-17T01:18:43.340Z,-2.67
2024-01-17T01:29:04.191Z,-2.58
2024-01-17T01:39:24.961Z,-2.73
2024-01-17T01:49:48.691Z,-2.70
2024-01-17T02:00:10.850Z,-2.71
2024-01-17T02:10:36.317Z,-2.80
2024-01-17T02:20:57.659Z,-2.78
2024-01-17T02:31:18.870Z,-2.76
2024-01-17T02:41:39.989Z,-2.98
2024-01-17T02:52:01.150Z,-3.06
2024-01-17T03:02:22.020Z,-3.10
2024-01-17T03:12:44.080Z,-3.21
2024-01-17T03:23:05.085Z,-3.19
2024-01-17T03:33:25.933Z,-3.46
2024-01-17T03:43:47.223Z,-3.69
2024-01-17T03:54:09.431Z,-3.65
2024-01-17T04:04:30.540Z,-3.78
2024-01-17T04:14:51.614Z,-3.88
2024-01-17T04:25:12.405Z,-4.08
2024-01-17T04:35:33.263Z,-3.91
2024-01-17T04:45:54.089Z,-3.90
2024-01-17T04:56:17.124Z,-4.19
2024-01-17T05:06:38.359Z,-4.09
2024-01-17T05:16:59.386Z,-4.10
2024-01-17T05:27:20.542Z,-4.00
2024-01-17T05:37:42.455Z,-4.18
2024-01-17T05:48:03.951Z,-4.16
2024-01-17T05:58:24.743Z,-4.03
2024-01-17T06:08:45.721Z,-4.06
2024-01-17T06:19:06.767Z,-3.90
2024-01-17T06:29:27.731Z,-3.35
2024-01-17T06:39:48.887Z,-3.33
2024-01-17T06:50:10.506Z,-3.54
2024-01-17T07:00:34.540Z,-3.76
2024-01-17T07:10:56.599Z,-4.20
2024-01-17T07:21:17.727Z,-4.30
2024-01-17T07:31:39.956Z,-4.26
2024-01-17T07:42:00.918Z,-4.24
2024-01-17T07:52:21.732Z,-4.33
2024-01-17T08:02:42.929Z,-4.16
2024-01-17T08:13:04.362Z,-4.10
2024-01-17T08:23:25.655Z,-4.22
2024-01-17T08:33:47.028Z,-4.37
2024-01-17T08:44:08.054Z,-4.44
2024-01-17T08:54:29.055Z,-4.47
2024-01-17T09:04:50.350Z,-4.17
2024-01-17T09:15:11.756Z,-3.99
2024-01-17T09:25:32.507Z,-3.87
2024-01-17T09:36:01.608Z,-3.63
2024-01-17T09:46:24.117Z,-3.56
2024-01-17T09:56:47.601Z,-3.41
2024-01-17T10:07:09.041Z,-2.96
2024-01-17T10:17:30.235Z,-2.84
2024-01-17T10:27:51.304Z,-2.58
2024-01-17T10:38:12.465Z,-2.24
2024-01-17T10:48:33.387Z,-2.18
2024-01-17T10:58:56.690Z,-2.16
2024-01-17T11:09:19.583Z,-2.10
2024-01-17T11:19:44.614Z,-1.91
2024-01-17T11:30:32.522Z,-1.77
2024-01-17T11:40:54.503Z,-1.79
2024-01-17T11:51:16.559Z,-1.92
2024-01-17T12:01:37.284Z,-1.90
2024-01-17T12:12:03.123Z,-1.69
2024-01-17T12:22:23.850Z,-1.72
2024-01-17T12:32:44.858Z,-1.67
2024-01-17T12:43:06.035Z,-1.70
2024-01-17T12:53:29.180Z,-1.61
2024-01-17T13:04:07.291Z,-1.45
2024-01-17T13:14:31.115Z,-1.50
2024-01-17T13:24:54.058Z,-1.42
2024-01-17T13:35:18.070Z,-1.35
2024-01-17T13:45:39.182Z,-1.31
2024-01-17T13:56:01.554Z,-1.19
2024-01-17T14:06:23.335Z,-1.14
2024-01-17T14:16:44.612Z,-1.08
2024-01-17T14:27:06.273Z,-1.01
2024-01-17T14:37:26.994Z,-0.94
2024-01-17T14:47:50.478Z,-0.93
2024-01-17T14:58:11.123Z,-0.91
2024-01-17T15:08:33.019Z,-0.90
2024-01-17T15:18:54.090Z,-0.88
2024-01-17T15:29:15.835Z,-0.88
2024-01-17T15:39:37.769Z,-0.85
2024-01-17T15:49:59.193Z,-0.84
2024-01-17T16:00:20.358Z,-0.77
2024-01-17T16:10:43.085Z,0.02
2024-01-17T16:21:04.653Z,-0.20
2024-01-17T16:31:25.590Z,-0.40
2024-01-17T16:41:47.859Z,-0.44
2024-01-17T16:52:09.049Z,-0.41
2024-01-17T17:02:32.776Z,-0.32
2024-01-17T17:12:53.905Z,-0.26
2024-01-17T17:23:14.917Z,-0.19
2024-01-17T17:33:35.979Z,-0.11
2024-01-17T17:43:57.035Z,-0.02
2024-01-17T17:54:17.916Z,0.07
2024-01-17T18:04:38.836Z,0.17
2024-01-17T18:14:59.934Z,0.26
2024-01-17T18:25:20.923Z,2.26
2024-01-17T18:35:41.898Z,1.97
2024-01-17T18:46:02.831Z,1.10
2024-01-17T18:56:25.675Z,0.89
2024-01-17T19:06:46.801Z,0.81
2024-01-17T19:17:08.090Z,0.82
2024-01-17T19:27:30.038Z,0.82
2024-01-17T19:37:50.914Z,0.88
2024-01-17T19:48:11.866Z,0.89
2024-01-17T19:58:32.683Z,1.00
2024-01-17T20:08:53.662Z,1.14
2024-01-17T20:19:15.081Z,1.26
2024-01-17T20:29:36.217Z,1.48
2024-01-17T20:39:56.965Z,1.46
2024-01-17T20:50:20.348Z,1.35
2024-01-17T21:00:41.061Z,1.37
2024-01-17T21:11:01.829Z,1.43
2024-01-17T21:21:22.764Z,1.49
2024-01-17T21:31:44.016Z,1.68
2024-01-17T21:42:06.016Z,1.84
2024-01-17T21:52:27.423Z,1.82
2024-01-17T22:02:48.294Z,1.78
2024-01-17T22:13:09.112Z,1.92
2024-01-17T22:23:29.955Z,2.00
2024-01-17T22:33:50.924Z,2.14
2024-01-17T22:44:17.411Z,2.17
2024-01-17T22:54:39.262Z,2.34
2024-01-17T23:05:00.249Z,2.50
2024-01-17T23:15:21.704Z,2.58
2024-01-17T23:25:42.733Z,2.76
2024-01-17T23:36:03.839Z,2.92
2024-01-17T23:46:24.965Z,3.03
2024-01-17T23:56:46.151Z,3.17
